Time;durP1;ratioP1;P1;durP2;ratioP2;P2;SDS_P1;SDS_P2;PMS_P1;PMS_P2;Temp;Humidity;BMP_temperature;BMP_pressure;BME280_temperature;BME280_humidity;BME280_pressure;Samples;Min_cycle;Max_cycle;Signal;HPM_P1;HPM_P2
2021/05/29 00:01:30;;;;;;;6.22;3.70;;;;;;;13.20;60.75;102348.22;5069136;28;20384;-55
2021/05/29 00:03:58;;;;;;;6.65;4.10;;;;;;;13.22;61.53;102344.16;5053020;28;20044;-53
2021/05/29 00:06:26;;;;;;;7.03;4.18;;;;;;;13.21;61.56;102342.53;5053354;28;20106;-54
2021/05/29 00:08:53;;;;;;;6.72;3.67;;;;;;;13.13;61.91;102340.22;5053085;28;20118;-52
2021/05/29 00:11:21;;;;;;;8.15;4.30;;;;;;;13.06;61.56;102339.53;5051556;28;20049;-54
2021/05/29 00:13:49;;;;;;;8.98;4.10;;;;;;;13.06;61.92;102345.00;5053147;28;20045;-51
2021/05/29 00:16:16;;;;;;;7.45;3.92;;;;;;;13.09;62.47;102341.78;5051863;28;20123;-49
2021/05/29 00:18:44;;;;;;;6.82;3.60;;;;;;;13.17;61.55;102344.09;5053389;28;20403;-50
2021/05/29 00:21:12;;;;;;;7.10;4.20;;;;;;;13.16;61.85;102345.19;5053018;28;20071;-51
2021/05/29 00:23:40;;;;;;;6.13;3.53;;;;;;;13.10;61.70;102348.88;5052745;28;20561;-48
2021/05/29 00:26:07;;;;;;;5.78;3.50;;;;;;;13.05;62.03;102340.59;5052687;28;20114;-48
2021/05/29 00:28:36;;;;;;;5.68;3.60;;;;;;;13.04;62.79;102343.59;5053518;28;20041;-50
2021/05/29 00:31:06;;;;;;;7.22;3.60;;;;;;;12.97;62.32;102338.28;5053429;28;20051;-54
2021/05/29 00:33:34;;;;;;;7.20;3.70;;;;;;;12.93;62.85;102335.19;5052652;28;20488;-55
2021/05/29 00:36:01;;;;;;;7.35;3.58;;;;;;;12.88;63.16;102339.75;5053140;28;20095;-54
2021/05/29 00:38:30;;;;;;;6.45;3.75;;;;;;;12.91;63.18;102336.50;5052447;28;20103;-55
2021/05/29 00:40:59;;;;;;;7.30;3.78;;;;;;;12.90;63.05;102343.06;5052721;28;20056;-53
2021/05/29 00:43:26;;;;;;;5.57;3.28;;;;;;;12.92;63.14;102343.66;5052856;28;20396;-52
2021/05/29 00:45:54;;;;;;;6.60;3.92;;;;;;;12.87;63.53;102335.34;5052057;28;20041;-53
2021/05/29 00:48:22;;;;;;;8.10;3.60;;;;;;;12.87;63.47;102341.66;5051476;28;20115;-52
2021/05/29 00:50:50;;;;;;;6.40;3.60;;;;;;;12.85;63.81;102348.47;5052165;28;20565;-50
2021/05/29 00:53:18;;;;;;;5.47;3.60;;;;;;;12.85;64.14;102343.00;5052295;28;20037;-54
2021/05/29 00:55:46;;;;;;;6.32;3.67;;;;;;;12.84;63.68;102346.78;5052651;28;20385;-48
2021/05/29 00:58:14;;;;;;;4.22;2.83;;;;;;;12.83;64.29;102347.88;5052389;28;20083;-48
2021/05/29 01:00:42;;;;;;;5.80;3.50;;;;;;;12.79;63.71;102339.31;5052272;28;20110;-51
2021/05/29 01:03:10;;;;;;;8.00;3.85;;;;;;;12.77;64.37;102346.94;5052345;28;20523;-55
2021/05/29 01:05:38;;;;;;;7.38;3.88;;;;;;;12.77;64.50;102349.66;5052206;28;20443;-52
2021/05/29 01:08:06;;;;;;;9.43;3.70;;;;;;;12.81;64.16;102350.84;5051873;28;20032;-54
2021/05/29 01:10:35;;;;;;;7.68;4.00;;;;;;;12.78;64.14;102346.69;5067531;28;20507;-55
2021/05/29 01:13:06;;;;;;;6.88;3.50;;;;;;;12.76;64.74;102351.56;5052325;28;20079;-55
2021/05/29 01:15:38;;;;;;;6.43;3.53;;;;;;;12.67;64.31;102349.47;5052213;28;20057;-55
2021/05/29 01:18:07;;;;;;;6.38;3.78;;;;;;;12.59;64.85;102345.25;5052096;28;20104;-53
2021/05/29 01:20:36;;;;;;;6.90;4.10;;;;;;;12.56;65.31;102337.53;5052419;28;20068;-52
2021/05/29 01:23:04;;;;;;;7.82;3.90;;;;;;;12.55;64.66;102344.91;5051803;28;20049;-53
2021/05/29 01:25:36;;;;;;;6.80;3.88;;;;;;;12.58;64.73;102344.41;5052120;28;20459;-52
2021/05/29 01:28:04;;;;;;;9.40;4.00;;;;;;;12.63;64.81;102345.56;5052043;28;20090;-51
2021/05/29 01:30:44;;;;;;;6.22;3.50;;;;;;;12.61;65.31;102351.28;5052445;28;20069;-55
2021/05/29 01:33:32;;;;;;;7.32;4.07;;;;;;;12.60;65.38;102341.41;5051772;28;20103;-55
2021/05/29 01:36:06;;;;;;;6.47;3.90;;;;;;;12.62;65.48;102339.28;5052305;28;20036;-56
2021/05/29 01:38:34;;;;;;;7.13;3.95;;;;;;;12.64;64.96;102342.59;5052136;28;20041;-54
2021/05/29 01:41:22;;;;;;;7.30;4.03;;;;;;;12.65;64.65;102344.28;5052035;28;20107;-55
2021/05/29 01:43:51;;;;;;;7.15;4.00;;;;;;;12.58;65.13;102354.53;5051871;28;20454;-55
2021/05/29 01:46:20;;;;;;;7.03;4.40;;;;;;;12.56;64.93;102351.19;5051093;28;20076;-54
2021/05/29 01:48:49;;;;;;;8.43;4.15;;;;;;;12.57;64.94;102353.66;5051938;28;20495;-56
2021/05/29 01:51:20;;;;;;;6.80;4.07;;;;;;;12.61;65.23;102355.94;5051333;28;20061;-56
2021/05/29 01:53:50;;;;;;;6.03;3.85;;;;;;;12.60;65.29;102355.09;5047388;28;20534;-53
2021/05/29 01:56:17;;;;;;;8.02;4.18;;;;;;;12.56;65.45;102362.13;5052909;28;20056;-51
2021/05/29 01:58:45;;;;;;;7.22;4.03;;;;;;;12.47;65.52;102358.13;5056128;28;20087;-50
2021/05/29 02:01:14;;;;;;;7.25;4.15;;;;;;;12.40;66.10;102354.69;5055724;28;20037;-49
2021/05/29 02:03:44;;;;;;;7.55;4.00;;;;;;;12.36;66.12;102360.66;5055560;28;20048;-50
2021/05/29 02:06:14;;;;;;;8.07;4.45;;;;;;;12.35;66.42;102350.78;5054871;28;20102;-53
2021/05/29 02:08:42;;;;;;;6.78;4.00;;;;;;;12.40;65.81;102357.44;5068415;28;20040;-52
2021/05/29 02:11:09;;;;;;;7.43;4.38;;;;;;;12.43;65.59;102356.94;5075247;28;20146;-52
2021/05/29 02:13:39;;;;;;;7.03;4.28;;;;;;;12.39;65.66;102358.50;5075446;28;20036;-49
2021/05/29 02:16:09;;;;;;;8.02;4.55;;;;;;;12.35;65.94;102360.88;5075423;28;20071;-49
2021/05/29 02:18:38;;;;;;;7.78;4.13;;;;;;;12.26;66.74;102365.06;5075801;28;20036;-53
2021/05/29 02:21:08;;;;;;;8.60;4.30;;;;;;;12.26;66.64;102373.25;5074670;28;20123;-55
2021/05/29 02:23:39;;;;;;;9.75;4.82;;;;;;;12.28;66.77;102369.22;5074308;28;20109;-54
2021/05/29 02:26:12;;;;;;;10.05;4.60;;;;;;;12.19;66.54;102365.19;5074999;28;20064;-53
2021/05/29 02:28:42;;;;;;;8.60;4.20;;;;;;;12.15;66.97;102366.78;5075231;28;20045;-54
2021/05/29 02:31:10;;;;;;;8.70;4.70;;;;;;;12.04;67.54;102370.34;5075107;28;20829;-54
2021/05/29 02:33:39;;;;;;;7.93;4.47;;;;;;;11.89;67.70;102365.38;5075177;28;20128;-53
2021/05/29 02:36:07;;;;;;;6.85;4.55;;;;;;;11.88;67.44;102367.28;5074649;28;20044;-54
2021/05/29 02:38:35;;;;;;;8.30;4.53;;;;;;;11.93;67.49;102370.13;5075302;28;20041;-51
2021/05/29 02:41:05;;;;;;;6.43;4.00;;;;;;;11.92;68.18;102362.97;5074616;28;20102;-53
2021/05/29 02:43:33;;;;;;;7.28;4.63;;;;;;;11.93;67.58;102370.13;5075231;28;20041;-53
2021/05/29 02:46:01;;;;;;;8.63;5.15;;;;;;;11.92;68.22;102368.44;5075191;28;20033;-55
2021/05/29 02:48:28;;;;;;;7.25;4.20;;;;;;;11.85;68.15;102369.59;5074858;28;20058;-53
2021/05/29 02:50:56;;;;;;;11.02;4.95;;;;;;;11.77;68.46;102376.28;5074687;28;20052;-51
2021/05/29 02:53:24;;;;;;;9.20;4.85;;;;;;;11.83;67.80;102380.75;5074566;28;20044;-53
2021/05/29 02:55:51;;;;;;;6.95;4.50;;;;;;;11.85;67.73;102381.34;5074817;28;20045;-55
2021/05/29 02:58:19;;;;;;;8.32;5.05;;;;;;;11.91;68.51;102383.19;5074685;28;20086;-53
2021/05/29 03:00:49;;;;;;;9.05;5.05;;;;;;;11.92;67.89;102384.84;5074831;28;20094;-53
2021/05/29 03:03:16;;;;;;;8.40;4.97;;;;;;;11.90;68.34;102378.78;5074322;28;20511;-54
2021/05/29 03:05:47;;;;;;;9.32;5.10;;;;;;;11.86;68.05;102391.22;5074293;28;20116;-54
2021/05/29 03:08:19;;;;;;;8.48;5.07;;;;;;;11.80;68.38;102385.88;5074358;28;20119;-56
2021/05/29 03:10:49;;;;;;;12.27;5.32;;;;;;;11.82;68.61;102383.75;5074447;28;20538;-50
2021/05/29 03:13:17;;;;;;;7.38;4.85;;;;;;;11.83;67.90;102382.66;5074175;28;20049;-49
2021/05/29 03:15:45;;;;;;;10.00;5.43;;;;;;;11.88;67.87;102382.81;5074514;28;20482;-53
2021/05/29 03:18:13;;;;;;;9.20;5.40;;;;;;;11.88;68.21;102383.66;5073803;28;20068;-53
2021/05/29 03:20:40;;;;;;;11.27;5.57;;;;;;;11.87;68.21;102379.25;5074538;28;20094;-52
2021/05/29 03:23:08;;;;;;;10.25;5.38;;;;;;;11.89;68.03;102379.03;5074597;28;20051;-54
2021/05/29 03:25:36;;;;;;;9.75;5.60;;;;;;;11.88;67.56;102378.22;5074091;28;20048;-53
2021/05/29 03:28:04;;;;;;;9.13;5.65;;;;;;;11.85;67.89;102373.16;5073037;28;20070;-56
2021/05/29 03:30:31;;;;;;;11.88;5.97;;;;;;;11.80;68.46;102373.06;5074292;28;20139;-52
2021/05/29 03:32:59;;;;;;;10.05;5.80;;;;;;;11.75;67.93;102381.13;5073558;28;20094;-50
2021/05/29 03:35:28;;;;;;;9.27;5.82;;;;;;;11.75;68.73;102386.59;5074224;28;20068;-50
2021/05/29 03:37:55;;;;;;;9.70;6.32;;;;;;;11.74;67.93;102387.69;5046101;28;20068;-48
2021/05/29 03:40:23;;;;;;;10.45;6.40;;;;;;;11.71;68.29;102382.66;5073846;28;20110;-54
2021/05/29 03:42:51;;;;;;;9.05;5.75;;;;;;;11.72;68.27;102390.63;5074066;28;20479;-54
2021/05/29 03:45:21;;;;;;;11.43;6.30;;;;;;;11.76;68.35;102392.88;5073828;28;20072;-51
2021/05/29 03:47:49;;;;;;;10.02;6.10;;;;;;;11.78;67.90;102401.66;5073165;28;20055;-49
2021/05/29 03:50:23;;;;;;;9.55;5.85;;;;;;;11.80;67.82;102403.09;5073728;28;20118;-49
2021/05/29 03:52:51;;;;;;;10.43;5.82;;;;;;;11.80;68.04;102403.09;5073542;28;20564;-56
2021/05/29 03:55:21;;;;;;;10.35;6.38;;;;;;;11.79;67.84;102401.44;5073620;28;20072;-52
2021/05/29 03:57:49;;;;;;;9.23;5.63;;;;;;;11.80;68.13;102403.09;5073597;28;20079;-53
2021/05/29 04:00:19;;;;;;;10.68;6.13;;;;;;;11.80;67.87;102389.44;5073567;28;20044;-51
2021/05/29 04:02:47;;;;;;;10.60;6.32;;;;;;;11.74;67.41;102398.59;5073076;28;20037;-48
2021/05/29 04:05:16;;;;;;;10.13;6.22;;;;;;;11.74;68.09;102404.06;5073220;28;20053;-50
2021/05/29 04:07:43;;;;;;;9.73;5.90;;;;;;;11.70;67.74;102398.22;5073368;28;20044;-50
2021/05/29 04:10:14;;;;;;;9.52;6.03;;;;;;;11.65;68.28;102403.56;5073082;28;20441;-49
2021/05/29 04:12:43;;;;;;;9.63;6.45;;;;;;;11.65;68.71;102408.19;5073314;28;20049;-50
2021/05/29 04:15:12;;;;;;;9.85;6.00;;;;;;;11.65;67.92;102402.75;5073023;28;20087;-51
2021/05/29 04:17:40;;;;;;;10.43;5.85;;;;;;;11.63;68.13;102408.44;5072992;28;20090;-51
2021/05/29 04:20:09;;;;;;;10.73;6.28;;;;;;;11.63;67.75;102402.16;5072693;28;20040;-48
2021/05/29 04:22:37;;;;;;;11.25;6.30;;;;;;;11.60;67.99;102413.53;5045414;28;20055;-53
2021/05/29 04:25:07;;;;;;;10.30;5.78;;;;;;;11.55;68.55;102410.69;5072907;28;20052;-51
2021/05/29 04:27:36;;;;;;;10.15;5.97;;;;;;;11.55;68.77;102410.69;5072798;28;20040;-52
2021/05/29 04:30:07;;;;;;;10.45;6.40;;;;;;;11.52;68.83;102412.81;5072687;28;20461;-51
2021/05/29 04:32:34;;;;;;;10.32;6.38;;;;;;;11.51;68.59;102413.03;5072611;28;20045;-53
2021/05/29 04:35:04;;;;;;;9.32;5.88;;;;;;;11.51;68.52;102413.88;5072429;28;20447;-51
2021/05/29 04:37:32;;;;;;;9.57;6.22;;;;;;;11.54;68.24;102412.56;5072631;28;20078;-54
2021/05/29 04:40:00;;;;;;;9.85;6.25;;;;;;;11.51;68.13;102419.34;5072728;28;20499;-54
2021/05/29 04:42:30;;;;;;;9.80;5.57;;;;;;;11.50;68.69;102425.88;5072785;28;20503;-52
2021/05/29 04:44:57;;;;;;;9.98;6.18;;;;;;;11.55;67.81;102427.06;5072712;28;20101;-53
2021/05/29 04:47:26;;;;;;;10.02;5.65;;;;;;;11.61;68.33;102423.38;5072121;28;20044;-53
2021/05/29 04:49:53;;;;;;;10.23;6.25;;;;;;;11.64;68.41;102431.09;5072562;28;20513;-51
2021/05/29 04:52:21;;;;;;;12.27;6.05;;;;;;;11.63;67.77;102434.91;5072482;28;20041;-50
2021/05/29 04:54:49;;;;;;;12.18;6.15;;;;;;;11.59;68.07;102433.69;5067641;28;20508;-52
2021/05/29 04:57:17;;;;;;;10.55;6.20;;;;;;;11.55;67.66;102429.81;5052785;28;20491;-53
2021/05/29 04:59:45;;;;;;;12.05;6.63;;;;;;;11.49;67.75;102432.38;5051659;28;20434;-49
2021/05/29 05:02:12;;;;;;;10.73;6.88;;;;;;;11.45;68.00;102428.47;5052196;28;20091;-50
2021/05/29 05:04:40;;;;;;;11.50;6.90;;;;;;;11.50;67.64;102439.53;5051738;28;20076;-52
2021/05/29 05:07:08;;;;;;;9.50;5.75;;;;;;;11.58;67.53;102438.34;5052088;28;20087;-52
2021/05/29 05:09:35;;;;;;;10.88;5.70;;;;;;;11.68;66.87;102440.50;5051854;28;20094;-50
2021/05/29 05:12:03;;;;;;;10.50;6.07;;;;;;;11.76;66.80;102440.16;5050892;28;20067;-53
2021/05/29 05:14:31;;;;;;;8.18;5.18;;;;;;;11.83;66.17;102445.47;5051654;28;20572;-53
2021/05/29 05:16:59;;;;;;;10.63;6.03;;;;;;;11.92;65.59;102450.38;5067486;28;20049;-53
2021/05/29 05:19:26;;;;;;;9.68;5.82;;;;;;;11.94;65.04;102448.25;5072058;28;20048;-53
2021/05/29 05:21:54;;;;;;;10.38;5.90;;;;;;;11.94;64.95;102442.78;5071748;28;20055;-52
2021/05/29 05:24:22;;;;;;;10.45;6.05;;;;;;;11.95;64.53;102440.88;5072266;28;20044;-52
2021/05/29 05:26:49;;;;;;;10.75;6.13;;;;;;;11.94;64.72;102445.53;5072040;28;20154;-52
2021/05/29 05:29:17;;;;;;;11.60;6.15;;;;;;;11.96;64.59;102452.66;5071337;28;20094;-53
2021/05/29 05:31:45;;;;;;;8.43;5.28;;;;;;;11.93;64.40;102446.59;5071946;28;20057;-52
2021/05/29 05:34:12;;;;;;;10.05;6.18;;;;;;;11.98;64.24;102453.22;5071416;28;20032;-53
2021/05/29 05:36:41;;;;;;;7.85;5.07;;;;;;;12.04;64.77;102455.84;5072151;28;20052;-56
2021/05/29 05:39:10;;;;;;;8.90;5.05;;;;;;;12.07;64.43;102462.75;5070812;28;20489;-54
2021/05/29 05:41:38;;;;;;;9.18;5.30;;;;;;;12.06;64.84;102451.00;5072475;28;20106;-52
2021/05/29 05:44:07;;;;;;;11.82;6.18;;;;;;;12.01;64.94;102464.53;5070881;28;20059;-54
2021/05/29 05:46:35;;;;;;;10.68;6.43;;;;;;;11.96;64.31;102460.88;5071893;28;20052;-48
2021/05/29 05:49:06;;;;;;;10.07;6.50;;;;;;;11.97;65.09;102471.53;5071826;28;20552;-50
2021/05/29 05:51:34;;;;;;;9.25;6.38;;;;;;;12.00;64.68;102472.97;5044138;28;20131;-49
2021/05/29 05:54:02;;;;;;;9.85;5.90;;;;;;;12.06;64.68;102469.28;5071625;28;20494;-48
2021/05/29 05:56:30;;;;;;;13.75;6.60;;;;;;;12.15;64.36;102470.59;5070516;28;20041;-50
2021/05/29 05:58:59;;;;;;;11.30;6.95;;;;;;;12.20;64.23;102472.63;5071191;28;20048;-53
2021/05/29 06:01:28;;;;;;;12.38;6.07;;;;;;;12.23;63.29;102478.44;5071343;28;20474;-49
2021/05/29 06:03:56;;;;;;;10.48;6.82;;;;;;;12.30;62.90;102476.41;5071624;28;20051;-51
2021/05/29 06:06:24;;;;;;;11.88;7.03;;;;;;;12.34;62.91;102483.06;5071761;28;20097;-50
2021/05/29 06:08:53;;;;;;;12.00;7.25;;;;;;;12.36;62.74;102488.28;5071692;28;20127;-50
2021/05/29 06:11:20;;;;;;;12.85;6.45;;;;;;;12.38;63.39;102488.03;5071575;28;20094;-49
2021/05/29 06:19:20;;;;;;;9.38;5.60;;;;;;;12.46;63.23;102493.13;5066223;28;20036;-51
2021/05/29 06:21:51;;;;;;;8.88;5.50;;;;;;;12.49;63.04;102487.22;5064759;28;20075;-52
2021/05/29 06:24:21;;;;;;;8.85;5.47;;;;;;;12.52;63.49;102486.72;5042120;28;20411;-49
2021/05/29 06:26:49;;;;;;;12.18;5.75;;;;;;;12.55;63.22;102487.09;5071097;28;20040;-51
2021/05/29 06:29:18;;;;;;;10.30;5.43;;;;;;;12.59;63.94;102492.91;5071268;28;20032;-49
2021/05/29 06:31:46;;;;;;;10.32;6.25;;;;;;;12.64;64.47;102495.72;5071368;28;20123;-48
2021/05/29 06:34:15;;;;;;;10.18;6.05;;;;;;;12.67;64.63;102502.63;5070825;28;20519;-50
2021/05/29 06:36:43;;;;;;;12.60;6.82;;;;;;;12.71;63.92;102506.53;5071175;28;20109;-49
2021/05/29 06:39:11;;;;;;;11.07;6.68;;;;;;;12.75;64.47;102505.81;5059078;28;20073;-48
2021/05/29 06:41:40;;;;;;;10.60;7.10;;;;;;;12.80;64.22;102507.84;5050462;28;20037;-49
2021/05/29 06:44:09;;;;;;;10.90;7.50;;;;;;;12.85;64.23;102512.59;5054573;28;20048;-52
2021/05/29 06:46:38;;;;;;;15.13;7.88;;;;;;;12.89;64.54;102513.75;5054752;28;20037;-49
2021/05/29 06:49:06;;;;;;;13.10;7.82;;;;;;;12.91;64.27;102506.97;5054913;28;20504;-51
2021/05/29 06:54:13;;;;;;;12.82;7.50;;;;;;;12.90;63.25;102510.78;5054390;28;20106;-50
2021/05/29 06:59:27;;;;;;;11.00;7.50;;;;;;;12.95;64.33;102513.63;5054288;28;20107;-53
2021/05/29 07:01:54;;;;;;;12.75;7.03;;;;;;;13.02;63.81;102518.97;5051981;28;20064;-50
2021/05/29 07:04:23;;;;;;;12.23;7.43;;;;;;;13.06;63.03;102520.13;5054383;28;20084;-52
2021/05/29 07:06:50;;;;;;;10.77;7.10;;;;;;;13.05;63.60;102518.47;5054309;28;20030;-50
2021/05/29 07:09:20;;;;;;;11.52;7.82;;;;;;;13.09;63.16;102519.66;5054102;28;20073;-55
2021/05/29 07:11:50;;;;;;;12.88;8.23;;;;;;;13.11;63.54;102520.25;5053583;28;20043;-53
2021/05/29 07:14:18;;;;;;;12.05;6.75;;;;;;;13.15;63.40;102518.66;5054552;28;20052;-54
2021/05/29 07:16:51;;;;;;;13.15;7.15;;;;;;;13.22;63.77;102518.53;5068354;28;20056;-50
2021/05/29 07:19:20;;;;;;;14.98;7.35;;;;;;;13.26;63.74;102524.34;5074203;28;20051;-56
2021/05/29 07:21:48;;;;;;;14.10;6.82;;;;;;;13.32;62.53;102510.53;5074630;28;20075;-50
2021/05/29 07:24:17;;;;;;;12.52;6.90;;;;;;;13.32;63.32;102512.44;5074232;28;20098;-52
2021/05/29 07:26:45;;;;;;;12.75;6.85;;;;;;;13.38;63.14;102519.69;5074226;28;20056;-53
2021/05/29 07:29:14;;;;;;;12.63;7.10;;;;;;;13.40;63.01;102514.81;5074210;28;20086;-53
2021/05/29 07:31:42;;;;;;;11.20;6.93;;;;;;;13.40;62.66;102509.31;5074300;28;20044;-53
2021/05/29 07:34:10;;;;;;;12.27;7.13;;;;;;;13.43;62.76;102517.88;5073574;28;20032;-51
2021/05/29 07:36:40;;;;;;;11.73;6.60;;;;;;;13.50;61.79;102517.72;5074158;28;20051;-53
2021/05/29 07:39:09;;;;;;;14.45;7.43;;;;;;;13.59;61.96;102529.13;5073126;28;20076;-52
2021/05/29 07:41:37;;;;;;;12.25;7.95;;;;;;;13.58;62.26;102525.53;5074082;28;20044;-51
2021/05/29 07:44:07;;;;;;;12.68;7.22;;;;;;;13.59;61.43;102527.19;5073642;28;20102;-52
2021/05/29 07:46:36;;;;;;;11.45;7.05;;;;;;;13.59;61.69;102532.69;5073948;28;20079;-57
2021/05/29 07:49:07;;;;;;;11.32;6.18;;;;;;;13.62;61.92;102529.44;5074103;28;20048;-55
2021/05/29 07:51:36;;;;;;;13.43;7.32;;;;;;;13.71;61.59;102534.50;5073415;28;20060;-52
2021/05/29 07:54:06;;;;;;;15.93;7.97;;;;;;;13.73;62.41;102535.09;5071929;28;20094;-51
2021/05/29 07:56:34;;;;;;;12.77;7.13;;;;;;;13.73;62.11;102535.91;5073235;28;20074;-53
2021/05/29 07:59:09;;;;;;;19.00;8.45;;;;;;;13.77;62.19;102530.78;5073466;28;20040;-53
2021/05/29 08:01:37;;;;;;;15.40;7.55;;;;;;;13.79;62.36;102526.72;5073108;28;20505;-51
2021/05/29 08:04:05;;;;;;;12.88;8.15;;;;;;;13.82;62.48;102536.34;5073363;28;20038;-50
2021/05/29 08:06:35;;;;;;;12.00;7.00;;;;;;;13.86;62.32;102537.53;5073479;28;20076;-52
2021/05/29 08:09:05;;;;;;;11.15;6.88;;;;;;;13.94;61.01;102542.59;5045694;28;20048;-53
2021/05/29 08:11:35;;;;;;;9.85;5.38;;;;;;;13.98;60.79;102546.50;5073374;28;20056;-51
2021/05/29 08:14:03;;;;;;;11.50;6.95;;;;;;;14.03;60.87;102557.53;5072830;28;20051;-52
2021/05/29 08:16:31;;;;;;;12.20;6.60;;;;;;;14.04;60.55;102541.91;5071865;28;20032;-51
2021/05/29 08:18:59;;;;;;;12.77;7.75;;;;;;;14.05;61.34;102541.69;5072859;28;20087;-51
2021/05/29 08:21:28;;;;;;;12.82;8.00;;;;;;;14.09;61.84;102550.22;5072840;28;20071;-49
2021/05/29 08:23:56;;;;;;;11.07;6.50;;;;;;;14.10;60.75;102554.66;5072335;28;20098;-50
2021/05/29 08:26:24;;;;;;;10.43;6.15;;;;;;;14.11;60.94;102547.25;5073090;28;20041;-50
2021/05/29 08:28:52;;;;;;;11.82;7.28;;;;;;;14.10;61.05;102540.13;5072497;28;20075;-50
2021/05/29 08:31:19;;;;;;;11.85;6.45;;;;;;;14.11;61.28;102536.28;5072688;28;20449;-51
2021/05/29 08:33:47;;;;;;;11.23;7.13;;;;;;;14.19;60.10;102538.59;5072869;28;20098;-53
2021/05/29 08:36:15;;;;;;;12.15;7.10;;;;;;;14.22;60.75;102549.06;5072597;28;20060;-50
2021/05/29 08:38:44;;;;;;;11.43;6.60;;;;;;;14.25;60.56;102549.38;5072327;28;20068;-50
2021/05/29 08:41:12;;;;;;;11.82;6.20;;;;;;;14.27;58.56;102549.16;5072165;28;20044;-49
2021/05/29 08:43:40;;;;;;;10.50;5.53;;;;;;;14.31;57.79;102552.22;5072415;28;20097;-51
2021/05/29 08:46:08;;;;;;;10.63;5.88;;;;;;;14.40;58.12;102551.53;5072562;28;20090;-51
2021/05/29 08:48:38;;;;;;;9.00;5.75;;;;;;;14.47;58.30;102552.19;5054795;28;20791;-50
2021/05/29 08:51:13;;;;;;;11.02;6.15;;;;;;;14.49;58.28;102561.00;5072180;28;20078;-49
2021/05/29 08:53:42;;;;;;;12.77;6.75;;;;;;;14.56;57.84;102565.53;5072087;28;20047;-51
2021/05/29 08:56:12;;;;;;;10.25;6.55;;;;;;;14.57;57.25;102562.50;5072306;28;20044;-53
2021/05/29 08:58:40;;;;;;;10.77;5.93;;;;;;;14.58;56.15;102560.63;5072309;28;20048;-50
2021/05/29 09:01:09;;;;;;;10.43;6.10;;;;;;;14.61;57.00;102569.16;5072255;28;20044;-52
2021/05/29 09:03:51;;;;;;;13.15;6.88;;;;;;;14.63;57.38;102558.78;5072012;28;20135;-50
2021/05/29 09:06:37;;;;;;;9.68;5.75;;;;;;;14.61;57.61;102557.34;5071288;28;20036;-51
2021/05/29 09:09:10;;;;;;;10.73;5.90;;;;;;;14.60;57.45;102556.53;5072106;28;20071;-50
2021/05/29 09:11:50;;;;;;;8.95;5.50;;;;;;;14.64;58.03;102557.66;5072211;28;20423;-49
2021/05/29 09:14:24;;;;;;;10.43;5.28;;;;;;;14.76;56.34;102563.06;5072431;28;20514;-51
2021/05/29 09:17:18;;;;;;;9.50;5.40;;;;;;;14.81;55.62;102563.13;5071532;28;20110;-52
2021/05/29 09:19:57;;;;;;;8.82;5.47;;;;;;;14.91;56.25;102567.91;5072010;28;20056;-50
2021/05/29 09:22:55;;;;;;;10.70;5.80;;;;;;;14.99;55.16;102569.41;5071635;28;20049;-50
2021/05/29 09:25:24;;;;;;;11.98;6.43;;;;;;;14.98;54.61;102564.97;5066550;28;20044;-51
2021/05/29 09:28:02;;;;;;;10.10;5.85;;;;;;;14.87;54.78;102567.59;5072191;28;20040;-49
2021/05/29 09:30:48;;;;;;;11.15;5.55;;;;;;;14.78;55.31;102565.56;5072041;28;20045;-51
2021/05/29 09:33:17;;;;;;;9.90;5.32;;;;;;;14.88;54.26;102565.69;5071722;28;20044;-51
2021/05/29 09:35:55;;;;;;;12.32;5.93;;;;;;;15.02;54.00;102571.63;5070723;28;20040;-50
2021/05/29 09:38:27;;;;;;;9.65;5.30;;;;;;;15.07;54.88;102577.19;5072033;28;20096;-51
2021/05/29 09:40:55;;;;;;;12.60;6.28;;;;;;;15.12;55.81;102574.50;5071525;28;20052;-50
2021/05/29 09:43:23;;;;;;;13.05;5.18;;;;;;;15.10;53.54;102579.41;5071668;28;20052;-50
2021/05/29 09:46:03;;;;;;;10.13;5.40;;;;;;;15.10;53.51;102571.16;5071890;28;20136;-49
2021/05/29 09:48:31;;;;;;;11.32;6.03;;;;;;;15.13;53.83;102581.66;5071675;28;20495;-51
2021/05/29 09:51:12;;;;;;;9.25;5.60;;;;;;;15.19;54.48;102582.56;5070788;28;20450;-50
2021/05/29 09:53:44;;;;;;;11.85;6.07;;;;;;;15.24;53.44;102577.94;5071988;28;20037;-49
2021/05/29 09:56:32;;;;;;;10.88;6.40;;;;;;;15.31;53.98;102580.50;5071683;28;20041;-50
2021/05/29 09:59:13;;;;;;;12.05;6.75;;;;;;;15.29;54.01;102578.00;5071596;28;20120;-51
2021/05/29 10:01:48;;;;;;;12.73;7.47;;;;;;;15.24;54.38;102577.94;5071434;28;20041;-52
2021/05/29 10:04:30;;;;;;;11.30;6.55;;;;;;;15.24;53.92;102572.44;5071011;28;20469;-50
2021/05/29 10:07:00;;;;;;;10.70;6.05;;;;;;;15.28;54.62;102573.59;5045697;28;20036;-52
2021/05/29 10:09:28;;;;;;;10.55;5.70;;;;;;;15.41;53.97;102575.13;5071123;28;20049;-50
2021/05/29 10:11:56;;;;;;;11.15;6.57;;;;;;;15.51;53.15;102571.66;5071757;28;20549;-49
2021/05/29 10:14:24;;;;;;;10.45;6.28;;;;;;;15.56;53.51;102574.44;5071847;28;20044;-51
2021/05/29 10:16:52;;;;;;;12.90;7.20;;;;;;;15.54;53.19;102576.66;5071451;28;20037;-50
2021/05/29 10:19:21;;;;;;;10.63;6.03;;;;;;;15.60;53.07;102586.59;5075022;28;20071;-49
2021/05/29 10:21:50;;;;;;;11.55;7.15;;;;;;;15.63;52.99;102577.81;5075540;28;20056;-50
2021/05/29 10:24:19;;;;;;;11.93;7.63;;;;;;;15.63;52.85;102577.00;5074875;28;20098;-50
2021/05/29 10:26:49;;;;;;;12.68;7.38;;;;;;;15.69;53.94;102568.53;5075221;28;20040;-52
2021/05/29 10:29:23;;;;;;;11.60;8.00;;;;;;;15.83;55.07;102579.97;5073992;28;20064;-50
2021/05/29 10:31:51;;;;;;;13.55;9.05;;;;;;;15.86;54.21;102581.38;5073798;28;20473;-54
2021/05/29 10:34:18;;;;;;;12.52;8.07;;;;;;;15.74;53.33;102579.63;5074176;28;20047;-49
2021/05/29 10:36:56;;;;;;;14.20;7.75;;;;;;;15.69;54.90;102585.03;5074391;28;20461;-50
2021/05/29 10:39:35;;;;;;;12.40;7.97;;;;;;;15.79;53.42;102581.59;5074877;28;20040;-50
2021/05/29 10:42:03;;;;;;;12.18;7.05;;;;;;;15.91;54.63;102575.94;5075191;28;20033;-50
2021/05/29 10:44:34;;;;;;;11.38;8.30;;;;;;;15.88;53.68;102571.78;5074630;28;20098;-52
2021/05/29 10:47:11;;;;;;;11.18;7.53;;;;;;;15.79;53.47;102572.53;5074789;28;20094;-51
2021/05/29 10:49:49;;;;;;;13.43;7.78;;;;;;;15.71;53.52;102582.06;5074316;28;20048;-51
2021/05/29 10:52:35;;;;;;;9.38;6.03;;;;;;;15.68;52.78;102572.41;5074584;28;20135;-51
2021/05/29 10:55:19;;;;;;;13.15;6.90;;;;;;;15.74;53.31;102576.03;5043074;28;20061;-52
2021/05/29 10:57:53;;;;;;;11.02;6.32;;;;;;;15.96;54.03;102567.72;5054155;28;20503;-52
2021/05/29 11:00:35;;;;;;;13.60;6.70;;;;;;;16.05;53.21;102568.91;5042070;28;20426;-52
2021/05/29 11:03:29;;;;;;;13.55;6.53;;;;;;;16.04;51.58;102560.91;5053613;28;20048;-50
2021/05/29 11:06:01;;;;;;;8.55;5.05;;;;;;;16.02;51.91;102561.19;5053082;28;20048;-50
2021/05/29 11:08:52;;;;;;;11.80;6.00;;;;;;;16.07;52.49;102558.47;5060410;28;20495;-52
2021/05/29 11:11:38;;;;;;;10.35;6.40;;;;;;;16.08;52.11;102560.13;5053916;28;20037;-51
2021/05/29 11:14:10;;;;;;;10.85;6.75;;;;;;;16.01;52.49;102559.50;5052605;28;20055;-51
2021/05/29 11:16:51;;;;;;;10.77;6.18;;;;;;;15.93;52.86;102554.50;5065715;28;20044;-51
2021/05/29 11:19:35;;;;;;;11.15;6.78;;;;;;;15.95;53.57;102563.31;5039656;28;20045;-52
2021/05/29 11:22:13;;;;;;;12.95;7.50;;;;;;;15.99;53.56;102561.69;5053393;28;20072;-49
2021/05/29 11:24:54;;;;;;;9.75;5.25;;;;;;;16.11;53.39;102556.03;5052969;28;20069;-50
2021/05/29 11:27:25;;;;;;;8.98;5.63;;;;;;;16.25;51.60;102564.66;5052250;28;20498;-51
2021/05/29 11:29:56;;;;;;;11.20;6.63;;;;;;;16.34;50.76;102557.56;5053445;28;20094;-51
2021/05/29 11:32:46;;;;;;;10.15;6.25;;;;;;;16.40;51.01;102557.34;5052843;28;20067;-50
2021/05/29 11:35:33;;;;;;;9.98;5.43;;;;;;;16.52;51.84;102548.88;5053510;28;20129;-52
2021/05/29 11:38:30;;;;;;;10.00;6.00;;;;;;;16.60;51.52;102555.81;5042547;28;20507;-48
2021/05/29 11:41:08;;;;;;;9.77;6.15;;;;;;;16.56;52.35;102557.44;5052766;28;20048;-48
2021/05/29 11:43:45;;;;;;;11.88;7.75;;;;;;;16.53;51.97;102550.53;5053515;28;20134;-49
2021/05/29 11:46:17;;;;;;;9.05;6.13;;;;;;;16.55;51.41;102553.88;5052455;28;20037;-50
2021/05/29 11:48:46;;;;;;;10.07;5.78;;;;;;;16.61;51.46;102554.72;5053519;28;20048;-50